Terminal Aerodrome Forecast
Issued by NWS Blacksburg, VA

Current Version | Previous Version | Graphics & Text | Print | Product List | Glossary On
Versions: 1 2 3 4 5 6 7 8 9 10 11 12 13 14 15 16 17 18 19
000
FTUS41 KRNK 181120
TAFBLF
TAF
KBLF 181120Z 1812/1912 24010KT P6SM OVC100
     FM181400 25007KT P6SM VCSH BKN035
      TEMPO 1815/1818 4SM SHRA OVC025
     FM181800 27009KT P6SM VCTS BKN035CB
     FM182200 29008KT P6SM SCT070=

USA.gov is the U.S. government's official web portal to all federal, state and local government web resources and services.